.
WxDataArchive / Data Records for 2009-11-29
2009-11-28 November 2009 2009-11-30

Data Records for Sunday, 29 November 2009

Time	Temp	Chill	HIndex	Humid	Dewpt	 Wind 	HiWind	WindDir	Rain 	Barom 
-----	----	-----	------	-----	-----	------	------	-------	-----	----- 
00:00	39.2	39.2	39.2	85	35.1	0	0	---	0.00	29.839 
00:05	38.9	38.9	38.9	85	34.8	0	0	---	0.00	29.839 
00:10	38.6	38.6	38.6	85	34.5	0	0	---	0.00	29.839 
00:15	38.3	38.3	38.3	86	34.5	0	0	---	0.00	29.830 
00:20	38.0	38.0	38.0	86	34.2	0	0	---	0.00	29.830 
00:25	37.8	37.8	37.8	87	34.3	0	0	---	0.00	29.830 
00:30	37.5	37.5	37.5	87	34.0	0	0	---	0.00	29.829 
00:35	37.0	37.0	37.0	87	33.5	0	0	---	0.00	29.829 
00:40	36.8	36.8	36.8	87	33.3	0	0	---	0.00	29.829 
00:45	36.5	36.5	36.5	87	33.0	0	0	---	0.00	29.827 
00:50	36.3	36.3	36.3	87	32.8	0	0	---	0.00	29.827 
00:55	36.0	36.0	36.0	87	32.5	0	0	---	0.00	29.827 
01:00	35.9	35.9	35.9	88	32.7	0	0	---	0.00	29.826 
01:05	35.9	35.9	35.9	89	33.0	0	0	---	0.00	29.826 
01:10	36.2	36.2	36.2	89	33.3	0	0	---	0.00	29.826 
01:15	36.2	36.2	36.2	90	33.6	0	0	---	0.00	29.815 
01:20	36.2	36.2	36.2	90	33.6	0	0	---	0.00	29.815 
01:25	36.0	36.0	36.0	90	33.4	0	0	---	0.00	29.815 
01:30	36.0	36.0	36.0	90	33.4	0	0	---	0.00	29.817 
01:35	36.0	36.0	36.0	90	33.4	0	0	---	0.00	29.817 
01:40	35.9	35.9	35.9	91	33.5	0	0	---	0.00	29.817 
01:45	35.8	35.8	35.8	91	33.4	0	0	---	0.00	29.818 
01:50	35.8	35.8	35.8	91	33.4	0	0	---	0.00	29.818 
01:55	35.6	35.6	35.6	91	33.2	0	0	---	0.00	29.818 
02:00	35.6	35.6	35.6	91	33.2	0	0	---	0.00	29.816 
02:05	35.8	35.8	35.8	92	33.7	0	0	---	0.00	29.816 
02:10	36.2	36.2	36.2	92	34.1	0	0	---	0.00	29.816 
02:15	36.5	36.5	36.5	92	34.4	0	0	---	0.00	29.817 
02:20	36.8	36.8	36.8	92	34.7	0	1	248	0.00	29.817 
02:25	37.0	37.0	37.0	92	34.9	0	0	---	0.00	29.817 
02:30	37.2	37.2	37.2	92	35.1	0	1	248	0.00	29.815 
02:35	37.2	37.2	37.2	92	35.1	0	0	---	0.00	29.815 
02:40	37.3	37.3	37.3	92	35.2	0	0	---	0.00	29.815 
02:45	37.3	37.3	37.3	92	35.2	0	0	---	0.00	29.814 
02:50	37.5	37.5	37.5	92	35.4	0	1	248	0.00	29.814 
02:55	37.6	37.6	37.6	92	35.5	0	1	248	0.00	29.814 
03:00	38.0	38.0	38.0	92	35.9	0	2	248	0.00	29.812 
03:05	38.5	38.5	38.5	92	36.4	0	3	248	0.00	29.812 
03:10	38.8	38.8	38.8	92	36.7	0	3	248	0.00	29.812 
03:15	39.1	39.1	39.1	91	36.7	0	2	248	0.00	29.810 
03:20	39.5	39.5	39.5	91	37.1	0	2	248	0.00	29.810 
03:25	39.8	39.8	39.8	90	37.1	1	3	248	0.00	29.810 
03:30	40.1	40.1	40.1	89	37.1	0	4	248	0.00	29.808 
03:35	40.5	40.5	40.5	88	37.2	1	3	248	0.00	29.808 
03:40	40.6	40.6	40.6	87	37.0	1	3	248	0.00	29.808 
03:45	40.9	40.9	40.9	87	37.3	1	3	248	0.00	29.806 
03:50	41.1	41.1	41.1	85	36.9	0	2	248	0.00	29.806 
03:55	41.2	41.2	41.2	85	37.0	1	2	248	0.00	29.806 
04:00	41.5	41.5	41.5	85	37.3	1	2	225	0.00	29.805 
04:05	41.6	41.6	41.6	84	37.1	1	4	270	0.00	29.805 
04:10	41.8	41.8	41.8	84	37.3	1	5	248	0.00	29.805 
04:15	41.8	41.8	41.8	83	37.0	1	3	270	0.00	29.801 
04:20	41.8	41.8	41.8	83	37.0	1	3	248	0.00	29.801 
04:25	41.8	41.8	41.8	83	37.0	0	4	248	0.00	29.801 
04:30	41.6	41.6	41.6	83	36.8	0	2	248	0.00	29.800 
04:35	41.6	41.6	41.6	83	36.8	0	2	248	0.00	29.800 
04:40	41.6	41.6	41.6	83	36.8	0	3	248	0.00	29.800 
04:45	41.5	41.5	41.5	83	36.7	0	2	248	0.00	29.802 
04:50	41.5	41.5	41.5	83	36.7	0	3	248	0.00	29.802 
04:55	41.5	41.5	41.5	84	37.0	1	3	248	0.00	29.802 
05:00	41.6	41.6	41.6	84	37.1	0	3	248	0.00	29.794 
05:05	41.6	41.6	41.6	83	36.8	1	3	248	0.00	29.794 
05:10	41.5	41.5	41.5	83	36.7	0	2	248	0.00	29.794 
05:15	41.5	41.5	41.5	84	37.0	0	2	248	0.00	29.795 
05:20	41.5	41.5	41.5	84	37.0	1	2	248	0.00	29.795 
05:25	41.3	41.3	41.3	84	36.8	0	1	248	0.00	29.795 
05:30	41.3	41.3	41.3	84	36.8	0	2	248	0.00	29.794 
05:35	41.2	41.2	41.2	84	36.7	0	1	248	0.00	29.794 
05:40	41.2	41.2	41.2	84	36.7	0	2	248	0.00	29.794 
05:45	41.2	41.2	41.2	84	36.7	0	2	248	0.00	29.792 
05:50	41.2	41.2	41.2	84	36.7	0	2	248	0.00	29.792 
05:55	41.2	41.2	41.2	84	36.7	0	2	248	0.00	29.792 
06:00	41.1	41.1	41.1	84	36.6	0	2	248	0.00	29.786 
06:05	41.1	41.1	41.1	85	36.9	1	3	248	0.00	29.786 
06:10	41.2	41.2	41.2	85	37.0	1	2	248	0.00	29.786 
06:15	41.3	41.3	41.3	85	37.1	1	6	248	0.00	29.787 
06:20	41.5	41.5	41.5	84	37.0	1	4	248	0.00	29.787 
06:25	41.5	41.5	41.5	85	37.3	1	2	225	0.00	29.787 
06:30	41.6	41.6	41.6	84	37.1	1	4	248	0.00	29.792 
06:35	41.8	41.8	41.8	84	37.3	1	3	248	0.00	29.792 
06:40	41.8	41.8	41.8	84	37.3	1	3	248	0.00	29.792 
06:45	41.9	41.9	41.9	84	37.4	1	5	248	0.00	29.796 
06:50	42.1	42.1	42.1	84	37.6	1	3	248	0.00	29.796 
06:55	42.1	42.1	42.1	84	37.6	1	3	248	0.00	29.796 
07:00	42.2	42.2	42.2	84	37.7	1	5	248	0.00	29.794 
07:05	42.2	42.2	42.2	83	37.4	1	2	248	0.00	29.794 
07:10	42.2	42.2	42.2	83	37.4	0	3	248	0.00	29.794 
07:15	42.1	42.1	42.1	83	37.3	1	4	248	0.00	29.792 
07:20	42.1	42.1	42.1	84	37.6	1	3	248	0.00	29.792 
07:25	42.2	42.2	42.2	84	37.7	1	4	248	0.00	29.792 
07:30	42.2	42.2	42.2	84	37.7	0	3	248	0.00	29.795 
07:35	42.2	42.2	42.2	84	37.7	1	5	248	0.00	29.795 
07:40	42.2	42.2	42.2	84	37.7	1	3	248	0.00	29.795 
07:45	42.2	42.2	42.2	84	37.7	1	6	248	0.00	29.797 
07:50	42.3	42.3	42.3	84	37.8	1	4	248	0.00	29.797 
07:55	42.3	42.3	42.3	84	37.8	1	4	248	0.00	29.797 
08:00	42.3	42.3	42.3	84	37.8	0	2	248	0.00	29.797 
08:05	42.3	42.3	42.3	84	37.8	1	3	248	0.00	29.797 
08:10	42.5	42.5	42.5	84	38.0	1	4	248	0.00	29.797 
08:15	42.6	42.6	42.6	84	38.1	1	4	248	0.00	29.799 
08:20	42.8	42.8	42.8	83	38.0	0	3	248	0.00	29.799 
08:25	42.9	42.9	42.9	83	38.1	1	3	248	0.00	29.799 
08:30	43.2	43.2	43.2	83	38.4	1	6	248	0.00	29.795 
08:35	43.5	43.5	43.5	83	38.7	1	7	248	0.00	29.795 
08:40	43.8	43.8	43.8	82	38.7	1	5	248	0.00	29.795 
08:45	44.1	44.1	44.1	82	39.0	1	4	248	0.00	29.798 
08:50	44.5	44.5	44.5	81	39.0	2	5	248	0.00	29.798 
08:55	44.9	44.9	44.9	81	39.4	2	6	248	0.00	29.798 
09:00	45.4	45.4	45.4	80	39.6	1	5	248	0.00	29.798 
09:05	45.7	45.7	45.7	79	39.6	3	9	248	0.00	29.798 
09:10	46.0	46.0	46.0	79	39.9	2	5	248	0.00	29.798 
09:15	46.4	46.4	46.4	78	39.9	2	6	248	0.00	29.794 
09:20	46.5	46.5	46.5	77	39.7	3	7	248	0.00	29.794 
09:25	46.8	46.8	46.8	77	40.0	3	7	248	0.00	29.794 
09:30	47.1	47.1	47.1	77	40.3	2	6	248	0.00	29.784 
09:35	47.3	47.3	47.3	76	40.1	3	7	248	0.00	29.784 
09:40	47.4	47.4	47.4	76	40.2	2	6	248	0.00	29.784 
09:45	47.7	47.7	47.7	76	40.5	2	6	248	0.00	29.784 
09:50	47.9	47.9	47.9	76	40.7	2	5	248	0.00	29.784 
09:55	48.0	48.0	48.0	75	40.5	3	6	248	0.00	29.784 
10:00	48.2	48.2	48.2	75	40.7	2	5	248	0.00	29.780 
10:05	48.5	48.5	48.5	75	40.9	3	9	248	0.00	29.780 
10:10	48.6	48.6	48.6	75	41.0	2	7	248	0.00	29.780 
10:15	48.9	47.6	48.9	74	41.0	4	11	248	0.00	29.785 
10:20	49.2	49.2	49.2	74	41.3	3	7	248	0.00	29.785 
10:25	49.4	49.4	49.4	73	41.1	2	10	225	0.00	29.785 
10:30	49.5	49.5	49.5	73	41.2	3	6	270	0.00	29.780 
10:35	49.6	49.6	49.6	73	41.3	3	8	270	0.00	29.780 
10:40	50.1	50.1	50.1	73	41.8	3	7	248	0.00	29.780 
10:45	50.4	50.4	50.4	72	41.7	3	6	248	0.00	29.783 
10:50	50.7	50.7	50.7	71	41.6	3	7	248	0.00	29.783 
10:55	50.8	50.8	50.8	71	41.7	3	7	248	0.00	29.783 
11:00	51.1	51.1	51.1	71	42.0	3	11	292	0.00	29.776 
11:05	51.6	51.6	51.6	70	42.1	2	5	248	0.00	29.776 
11:10	51.9	51.9	51.9	69	42.1	2	7	248	0.00	29.776 
11:15	51.9	51.9	51.9	69	42.1	3	9	248	0.00	29.767 
11:20	52.0	52.0	52.0	69	42.1	3	6	248	0.00	29.767 
11:25	52.2	52.2	52.2	69	42.3	3	10	248	0.00	29.767 
11:30	52.5	52.5	52.5	68	42.2	3	12	248	0.00	29.758 
11:35	52.9	52.9	52.9	68	42.6	3	10	248	0.00	29.758 
11:40	53.1	53.1	53.1	68	42.8	3	12	248	0.00	29.758 
11:45	53.2	53.2	53.2	67	42.5	4	11	248	0.00	29.744 
11:50	53.5	53.5	53.5	66	42.4	4	12	248	0.00	29.744 
11:55	53.6	53.6	53.6	66	42.5	3	9	248	0.00	29.744 
12:00	53.8	53.8	53.8	66	42.7	4	13	270	0.00	29.739 
12:05	53.9	53.9	53.9	66	42.8	5	13	270	0.00	29.739 
12:10	54.2	54.2	54.2	66	43.1	4	11	248	0.00	29.739 
12:15	54.5	54.5	54.5	65	43.0	4	11	248	0.00	29.742 
12:20	54.7	54.7	54.7	65	43.2	4	13	270	0.00	29.742 
12:25	54.5	54.5	54.5	65	43.0	4	10	248	0.00	29.742 
12:30	54.7	54.7	54.7	66	43.6	3	7	248	0.00	29.745 
12:35	55.0	55.0	55.0	65	43.5	3	11	248	0.00	29.745 
12:40	55.0	55.0	55.0	65	43.5	3	6	270	0.00	29.745 
12:45	54.8	54.8	54.8	65	43.3	4	10	248	0.00	29.735 
12:50	54.7	54.7	54.7	66	43.6	3	10	248	0.00	29.735 
12:55	54.7	54.7	54.7	66	43.6	3	6	248	0.00	29.735 
13:00	54.7	54.7	54.7	65	43.2	4	11	248	0.00	29.728 
13:05	54.8	54.8	54.8	66	43.7	3	7	270	0.00	29.728 
13:10	55.0	55.0	55.0	65	43.5	4	10	248	0.00	29.728 
13:15	54.7	54.7	54.7	65	43.2	5	12	270	0.00	29.724 
13:20	54.7	54.7	54.7	66	43.6	4	11	270	0.00	29.724 
13:25	54.7	54.7	54.7	65	43.2	3	7	248	0.00	29.724 
13:30	54.8	54.8	54.8	66	43.7	2	6	248	0.00	29.721 
13:35	54.8	54.8	54.8	66	43.7	3	6	248	0.00	29.721 
13:40	54.5	54.5	54.5	65	43.0	4	10	248	0.00	29.721 
13:45	54.4	54.4	54.4	67	43.7	3	9	248	0.00	29.717 
13:50	54.2	54.2	54.2	67	43.5	3	7	248	0.00	29.717 
13:55	54.1	54.1	54.1	67	43.4	4	10	248	0.00	29.717 
14:00	54.2	54.2	54.2	67	43.5	3	6	270	0.00	29.711 
14:05	54.1	54.1	54.1	67	43.4	3	9	270	0.00	29.711 
14:10	53.9	53.9	53.9	67	43.2	3	9	248	0.00	29.711 
14:15	53.8	53.8	53.8	67	43.1	4	11	248	0.00	29.713 
14:20	53.6	53.6	53.6	68	43.3	2	5	248	0.00	29.713 
14:25	53.5	53.5	53.5	68	43.2	3	9	248	0.00	29.713 
14:30	53.5	53.5	53.5	69	43.6	3	10	248	0.00	29.713 
14:35	53.3	53.3	53.3	69	43.4	2	7	248	0.00	29.713 
14:40	53.3	53.3	53.3	69	43.4	3	6	248	0.00	29.713 
14:45	53.3	53.3	53.3	69	43.4	2	6	248	0.00	29.714 
14:50	53.3	53.3	53.3	69	43.4	2	6	248	0.00	29.714 
14:55	53.2	53.2	53.2	69	43.3	2	6	270	0.00	29.714 
15:00	53.2	53.2	53.2	69	43.3	2	7	248	0.00	29.718 
15:05	53.1	53.1	53.1	69	43.2	2	7	292	0.00	29.718 
15:10	53.1	53.1	53.1	69	43.2	2	5	248	0.00	29.718 
15:15	52.9	52.9	52.9	70	43.4	2	7	248	0.00	29.714 
15:20	52.8	52.8	52.8	70	43.3	3	7	248	0.00	29.714 
15:25	52.8	52.8	52.8	72	44.0	3	9	270	0.00	29.714 
15:30	52.3	52.3	52.3	74	44.3	3	9	270	0.00	29.710 
15:35	51.9	51.9	51.9	79	45.6	1	3	248	0.01	29.710 
15:40	51.1	51.1	51.1	81	45.5	2	5	248	0.00	29.710 
15:45	50.7	50.7	50.7	83	45.7	1	4	248	0.00	29.713 
15:50	50.4	50.4	50.4	84	45.7	2	4	248	0.00	29.713 
15:55	50.2	50.2	50.2	85	45.9	1	3	248	0.00	29.713 
16:00	50.2	50.2	50.2	85	45.9	1	3	248	0.00	29.714 
16:05	50.1	50.1	50.1	85	45.8	1	3	248	0.00	29.714 
16:10	50.1	50.1	50.1	85	45.8	0	2	248	0.00	29.714 
16:15	50.1	50.1	50.1	85	45.8	0	1	248	0.00	29.714 
16:20	49.9	49.9	49.9	86	45.9	0	2	248	0.00	29.714 
16:25	49.9	49.9	49.9	86	45.9	0	2	248	0.00	29.714 
16:30	49.8	49.8	49.8	86	45.8	0	1	248	0.00	29.714 
16:35	49.6	49.6	49.6	87	45.9	0	2	248	0.00	29.714 
16:40	49.6	49.6	49.6	87	45.9	0	3	248	0.00	29.714 
16:45	49.5	49.5	49.5	87	45.8	1	3	248	0.00	29.727 
16:50	49.4	49.4	49.4	88	46.0	0	2	248	0.01	29.727 
16:55	49.2	49.2	49.2	88	45.8	1	3	248	0.00	29.727 
17:00	49.1	49.1	49.1	89	46.0	1	3	248	0.01	29.728 
17:05	48.9	48.9	48.9	90	46.1	0	1	248	0.01	29.728 
17:10	48.8	48.8	48.8	90	46.0	0	1	248	0.01	29.728 
17:15	48.6	48.6	48.6	91	46.1	1	4	248	0.00	29.723 
17:20	48.5	48.5	48.5	91	46.0	1	2	248	0.00	29.723 
17:25	48.5	48.5	48.5	92	46.3	0	3	248	0.00	29.723 
17:30	48.3	48.3	48.3	92	46.1	1	3	248	0.00	29.734 
17:35	48.3	48.3	48.3	92	46.1	1	3	248	0.00	29.734 
17:40	48.3	48.3	48.3	92	46.1	1	5	248	0.01	29.734 
17:45	48.2	48.2	48.2	93	46.3	1	3	248	0.01	29.734 
17:50	48.2	48.2	48.2	93	46.3	1	3	248	0.01	29.734 
17:55	48.2	48.2	48.2	93	46.3	1	3	248	0.00	29.734 
18:00	48.0	48.0	48.0	93	46.1	1	4	248	0.00	29.742 
18:05	47.9	47.9	47.9	93	46.0	1	5	270	0.01	29.742 
18:10	47.9	47.9	47.9	93	46.0	0	4	248	0.00	29.742 
18:15	47.7	47.7	47.7	94	46.1	0	2	248	0.01	29.734 
18:20	47.7	47.7	47.7	94	46.1	0	1	248	0.00	29.734 
18:25	47.7	47.7	47.7	94	46.1	0	1	248	0.00	29.734 
18:30	47.6	47.6	47.6	94	46.0	0	1	248	0.00	29.743 
18:35	47.6	47.6	47.6	94	46.0	0	1	248	0.00	29.743 
18:40	47.6	47.6	47.6	94	46.0	0	3	248	0.00	29.743 
18:45	47.4	47.4	47.4	94	45.8	0	1	248	0.00	29.749 
18:50	47.4	47.4	47.4	94	45.8	1	3	248	0.00	29.749 
18:55	47.3	47.3	47.3	94	45.7	0	3	292	0.00	29.749 
19:00	47.3	47.3	47.3	94	45.7	1	2	292	0.00	29.749 
19:05	46.8	46.8	46.8	94	45.2	1	4	292	0.00	29.749 
19:10	46.4	46.4	46.4	94	44.8	1	4	315	0.00	29.749 
19:15	46.2	46.2	46.2	94	44.6	0	2	292	0.01	29.763 
19:20	46.0	46.0	46.0	94	44.4	1	3	248	0.00	29.763 
19:25	45.8	45.8	45.8	94	44.2	0	2	338	0.00	29.763 
19:30	45.7	45.7	45.7	94	44.1	0	3	338	0.00	29.764 
19:35	45.5	45.5	45.5	94	43.9	1	3	338	0.01	29.764 
19:40	45.4	45.4	45.4	93	43.5	1	3	338	0.00	29.764 
19:45	45.2	45.2	45.2	93	43.3	2	4	315	0.01	29.773 
19:50	44.8	44.8	44.8	93	42.9	2	4	315	0.00	29.773 
19:55	44.3	44.3	44.3	93	42.4	2	6	292	0.00	29.773 
20:00	44.2	44.2	44.2	93	42.3	1	5	270	0.00	29.781 
20:05	44.1	44.1	44.1	93	42.2	1	3	270	0.01	29.781 
20:10	43.9	43.9	43.9	93	42.0	0	2	270	0.00	29.781 
20:15	43.8	43.8	43.8	93	41.9	1	3	292	0.00	29.780 
20:20	43.2	43.2	43.2	93	41.3	1	3	292	0.00	29.780 
20:25	42.6	42.6	42.6	93	40.7	2	4	338	0.00	29.780 
20:30	42.3	42.3	42.3	92	40.1	1	5	315	0.00	29.791 
20:35	42.2	42.2	42.2	92	40.0	1	7	0	0.00	29.791 
20:40	42.1	42.1	42.1	92	39.9	2	7	338	0.00	29.791 
20:45	41.9	41.9	41.9	92	39.7	1	5	0	0.00	29.795 
20:50	41.8	41.8	41.8	92	39.6	2	7	292	0.00	29.795 
20:55	41.5	41.5	41.5	92	39.4	1	4	338	0.00	29.795 
21:00	41.2	41.2	41.2	92	39.1	2	7	315	0.00	29.799 
21:05	41.1	41.1	41.1	91	38.7	2	5	270	0.00	29.799 
21:10	40.9	40.9	40.9	91	38.5	1	3	270	0.00	29.799 
21:15	40.9	40.9	40.9	91	38.5	1	2	0	0.00	29.802 
21:20	40.9	40.9	40.9	91	38.5	0	2	338	0.00	29.802 
21:25	40.9	40.9	40.9	91	38.5	1	6	0	0.01	29.802 
21:30	40.8	40.8	40.8	91	38.4	1	5	315	0.00	29.803 
21:35	40.8	40.8	40.8	91	38.4	2	6	22	0.00	29.803 
21:40	40.8	40.8	40.8	91	38.4	1	5	22	0.00	29.803 
21:45	40.6	40.6	40.6	91	38.2	1	4	292	0.00	29.802 
21:50	40.6	40.6	40.6	90	37.9	1	4	315	0.00	29.802 
21:55	40.6	40.6	40.6	90	37.9	2	6	270	0.00	29.802 
22:00	40.6	40.6	40.6	89	37.6	1	6	270	0.00	29.812 
22:05	40.5	40.5	40.5	89	37.5	1	4	292	0.00	29.812 
22:10	40.5	40.5	40.5	88	37.2	1	5	315	0.00	29.812 
22:15	40.5	40.5	40.5	88	37.2	1	3	315	0.00	29.812 
22:20	40.5	40.5	40.5	88	37.2	1	4	0	0.00	29.812 
22:25	40.5	40.5	40.5	87	36.9	1	3	338	0.00	29.812 
22:30	40.5	40.5	40.5	87	36.9	2	6	338	0.00	29.823 
22:35	40.5	40.5	40.5	87	36.9	1	4	270	0.00	29.823 
22:40	40.5	40.5	40.5	87	36.9	1	6	270	0.00	29.823 
22:45	40.3	40.3	40.3	86	36.5	1	5	270	0.00	29.826 
22:50	40.3	40.3	40.3	87	36.7	1	4	270	0.00	29.826 
22:55	40.3	40.3	40.3	87	36.7	1	4	292	0.00	29.826 
23:00	40.3	40.3	40.3	86	36.5	1	3	315	0.00	29.839 
23:05	40.2	40.2	40.2	86	36.4	0	3	270	0.00	29.839 
23:10	40.2	40.2	40.2	86	36.4	1	5	270	0.00	29.839 
23:15	40.2	40.2	40.2	86	36.4	1	4	292	0.00	29.831 
23:20	40.1	40.1	40.1	86	36.3	1	3	292	0.00	29.831 
23:25	40.1	40.1	40.1	86	36.3	0	1	292	0.00	29.831 
23:30	39.9	39.9	39.9	86	36.1	0	4	315	0.00	29.836 
23:35	39.9	39.9	39.9	86	36.1	1	4	315	0.00	29.836 
23:40	39.8	39.8	39.8	86	36.0	1	3	270	0.00	29.836 
23:45	39.6	39.6	39.6	87	36.1	0	2	270	0.00	29.840 
23:50	39.5	39.5	39.5	87	36.0	1	3	270	0.00	29.840 
23:55	39.5	39.5	39.5	87	36.0	1	3	270	0.00	29.840 

CoCoRaHS
IN-AL-39
A2 Web Hosting
Creative Commons License
GoDaddy
search engine by freefind advanced

loaded 2018-11-15 05:24:39 • last modified 2010-11-18 10:43:29
Privacy PolicyDisclaimer
• wx.awcolley.com is powered by PmWiki v.2002016 •
• all content (unless otherwise noted) © 2018 A W Colley